createdAt,value
2022-08-27T00:01:22.951Z,8.88
2022-08-27T00:06:25.702Z,9.80
2022-08-27T00:11:28.115Z,8.27
2022-08-27T00:16:29.856Z,8.85
2022-08-27T00:21:33.268Z,8.93
2022-08-27T00:26:37.332Z,8.73
2022-08-27T00:31:40.835Z,8.35
2022-08-27T00:36:42.735Z,8.05
2022-08-27T00:41:44.405Z,6.78
2022-08-27T00:46:50.709Z,5.68
2022-08-27T00:51:57.484Z,5.82
2022-08-27T00:57:00.485Z,6.38
2022-08-27T01:02:20.114Z,7.22
2022-08-27T01:07:23.729Z,6.28
2022-08-27T01:12:26.310Z,5.35
2022-08-27T01:17:28.189Z,5.95
2022-08-27T01:23:06.649Z,6.57
2022-08-27T01:28:10.065Z,5.60
2022-08-27T01:33:15.611Z,5.82
2022-08-27T01:38:30.442Z,5.50
2022-08-27T01:43:32.882Z,5.95
2022-08-27T01:48:34.826Z,5.85
2022-08-27T01:53:36.802Z,5.55
2022-08-27T01:58:39.154Z,5.07
2022-08-27T02:03:40.977Z,5.25
2022-08-27T02:08:42.773Z,5.55
2022-08-27T02:13:44.435Z,6.22
2022-08-27T02:18:47.341Z,5.53
2022-08-27T02:23:48.989Z,6.63
2022-08-27T02:28:50.685Z,6.47
2022-08-27T02:33:52.674Z,7.07
2022-08-27T02:38:54.431Z,6.75
2022-08-27T02:43:56.073Z,6.32
2022-08-27T02:48:57.822Z,7.47
2022-08-27T02:54:00.874Z,7.25
2022-08-27T02:59:04.251Z,8.02
2022-08-27T03:04:06.125Z,7.13
2022-08-27T03:09:07.895Z,8.25
2022-08-27T03:14:09.598Z,7.47
2022-08-27T03:19:11.606Z,7.50
2022-08-27T03:24:14.764Z,8.25
2022-08-27T03:29:16.564Z,9.13
2022-08-27T03:34:20.020Z,9.52
2022-08-27T03:39:21.741Z,9.57
2022-08-27T03:44:24.393Z,13.95
2022-08-27T03:49:26.178Z,13.32
2022-08-27T03:54:27.952Z,12.05
2022-08-27T03:59:29.776Z,12.18
2022-08-27T04:04:31.491Z,12.70
2022-08-27T04:09:33.095Z,14.80
2022-08-27T04:14:34.766Z,14.75
2022-08-27T04:19:36.517Z,16.60
2022-08-27T04:24:38.684Z,16.98
2022-08-27T04:29:40.850Z,16.42
2022-08-27T04:34:42.733Z,14.75
2022-08-27T04:39:48.596Z,13.90
2022-08-27T04:44:53.479Z,10.98
2022-08-27T04:49:55.135Z,12.52
2022-08-27T04:54:59.036Z,10.55
2022-08-27T05:00:00.704Z,12.20
2022-08-27T05:05:02.393Z,9.38
2022-08-27T05:10:04.272Z,11.55
2022-08-27T05:15:06.518Z,13.07
2022-08-27T05:20:09.592Z,20.50
2022-08-27T05:25:11.360Z,24.35
2022-08-27T05:30:13.264Z,25.58
2022-08-27T05:35:15.766Z,28.48
2022-08-27T05:40:17.581Z,27.70
2022-08-27T05:45:19.585Z,32.53
2022-08-27T05:50:23.670Z,30.63
2022-08-27T05:55:25.467Z,27.10
2022-08-27T06:00:45.859Z,24.77
2022-08-27T06:05:48.190Z,25.45
2022-08-27T06:10:50.207Z,22.45
2022-08-27T06:16:01.181Z,18.25
2022-08-27T06:21:02.988Z,17.27
2022-08-27T06:26:08.897Z,13.75
2022-08-27T06:31:14.163Z,13.55
2022-08-27T06:36:19.767Z,15.25
2022-08-27T06:41:24.736Z,16.10
2022-08-27T06:46:29.351Z,16.67
2022-08-27T06:51:34.163Z,15.80
2022-08-27T06:56:36.335Z,14.82
2022-08-27T07:01:41.801Z,15.73
2022-08-27T07:06:43.780Z,15.10
2022-08-27T07:11:45.411Z,14.95
2022-08-27T07:16:48.296Z,15.27
2022-08-27T07:21:52.218Z,14.40
2022-08-27T07:26:54.487Z,15.35
2022-08-27T07:31:56.169Z,14.27
2022-08-27T07:36:57.952Z,13.85
2022-08-27T07:42:18.216Z,14.50
2022-08-27T07:47:19.979Z,14.75
2022-08-27T07:52:25.900Z,15.55
2022-08-27T07:57:28.196Z,14.70
2022-08-27T08:02:30.977Z,12.30
2022-08-27T08:07:34.377Z,11.82
2022-08-27T08:12:40.197Z,12.90
2022-08-27T08:17:41.840Z,11.55
2022-08-27T08:22:43.536Z,10.80
2022-08-27T08:27:45.262Z,10.75
2022-08-27T08:32:46.979Z,10.35
2022-08-27T08:37:48.658Z,10.20
2022-08-27T08:42:54.954Z,10.05
2022-08-27T08:48:05.078Z,9.35
2022-08-27T08:53:13.244Z,10.00
2022-08-27T08:58:44.934Z,10.85
2022-08-27T09:03:59.985Z,9.07
2022-08-27T09:09:29.535Z,9.50
2022-08-27T09:14:41.629Z,8.43
2022-08-27T09:19:47.912Z,8.82
2022-08-27T09:25:32.740Z,11.40
2022-08-27T09:30:43.796Z,10.50
2022-08-27T09:35:46.931Z,10.27
2022-08-27T09:40:51.251Z,8.32
2022-08-27T09:45:56.148Z,8.45
2022-08-27T09:51:11.085Z,9.10
2022-08-27T09:56:33.137Z,8.57
2022-08-27T10:01:57.796Z,8.68
2022-08-27T10:06:59.707Z,9.15
2022-08-27T10:12:17.810Z,10.25
2022-08-27T10:17:53.651Z,10.07
2022-08-27T10:23:05.608Z,10.20
2022-08-27T10:28:34.467Z,10.48
2022-08-27T10:33:54.490Z,6.93
2022-08-27T10:39:15.232Z,5.38
2022-08-27T10:44:46.500Z,4.57
2022-08-27T10:50:10.544Z,5.45
2022-08-27T10:55:24.125Z,4.70
2022-08-27T11:00:36.552Z,4.55
2022-08-27T11:05:45.324Z,4.75
2022-08-27T11:11:26.004Z,6.40
2022-08-27T11:16:31.614Z,4.80
2022-08-27T11:21:43.690Z,5.00
2022-08-27T11:26:46.908Z,6.10
2022-08-27T11:31:53.581Z,21.05
2022-08-27T11:37:21.774Z,6.68
2022-08-27T11:42:48.264Z,5.78
2022-08-27T11:47:56.051Z,4.85
2022-08-27T11:53:06.773Z,5.88
2022-08-27T11:58:17.757Z,5.50
2022-08-27T12:03:19.434Z,6.25
2022-08-27T12:08:24.250Z,6.53
2022-08-27T12:13:32.665Z,6.20
2022-08-27T12:18:38.904Z,5.55
2022-08-27T12:23:55.765Z,5.18
2022-08-27T12:29:34.326Z,5.70
2022-08-27T12:35:03.289Z,6.25
2022-08-27T12:40:39.443Z,6.40
2022-08-27T12:46:07.860Z,7.05
2022-08-27T12:51:18.860Z,7.70
2022-08-27T12:56:30.098Z,6.78
2022-08-27T13:01:43.132Z,7.90
2022-08-27T13:06:45.939Z,7.70
2022-08-27T13:11:55.902Z,8.65
2022-08-27T13:17:14.816Z,9.75
2022-08-27T13:22:49.898Z,10.48
2022-08-27T13:27:56.228Z,8.25
2022-08-27T13:32:59.868Z,9.43
2022-08-27T13:38:03.125Z,9.70
2022-08-27T13:43:11.875Z,8.68
2022-08-27T13:48:17.256Z,9.77
2022-08-27T13:53:42.804Z,10.57
2022-08-27T13:58:44.501Z,10.60
2022-08-27T14:03:50.023Z,12.38
2022-08-27T14:08:51.873Z,9.88
2022-08-27T14:13:56.980Z,11.30
2022-08-27T14:19:23.785Z,10.55
2022-08-27T14:24:26.383Z,11.35
2022-08-27T14:29:28.105Z,11.35
2022-08-27T14:34:30.569Z,11.25
2022-08-27T14:39:32.396Z,12.68
2022-08-27T14:44:34.143Z,14.75
2022-08-27T14:49:39.405Z,12.68
2022-08-27T14:54:42.424Z,11.98
2022-08-27T14:59:44.068Z,13.23
2022-08-27T15:04:47.955Z,14.98
2022-08-27T15:09:49.846Z,15.50
2022-08-27T15:14:51.519Z,16.15
2022-08-27T15:19:53.145Z,19.58
2022-08-27T15:24:56.870Z,17.45
2022-08-27T15:30:01.828Z,17.60
2022-08-27T15:35:08.248Z,18.13
2022-08-27T15:40:11.811Z,17.05
2022-08-27T15:45:14.542Z,15.50
2022-08-27T15:50:17.443Z,18.00
2022-08-27T15:55:22.990Z,15.48
2022-08-27T16:00:24.926Z,12.93
2022-08-27T16:05:30.573Z,14.00
2022-08-27T16:10:32.258Z,13.35
2022-08-27T16:15:39.398Z,14.02
2022-08-27T16:20:42.040Z,12.43
2022-08-27T16:25:43.658Z,11.07
2022-08-27T16:30:45.493Z,10.85
2022-08-27T16:35:47.343Z,10.60
2022-08-27T16:40:52.966Z,13.05
2022-08-27T16:45:58.095Z,12.13
2022-08-27T16:51:00.214Z,12.73
2022-08-27T16:56:02.411Z,12.23
2022-08-27T17:01:07.541Z,10.70
2022-08-27T17:06:10.657Z,11.13
2022-08-27T17:11:21.910Z,11.32
2022-08-27T17:16:25.645Z,9.63
2022-08-27T17:21:32.055Z,10.18
2022-08-27T17:26:34.132Z,12.48
2022-08-27T17:31:38.215Z,12.70
2022-08-27T17:36:39.859Z,14.15
2022-08-27T17:41:49.100Z,13.73
2022-08-27T17:46:52.451Z,14.18
2022-08-27T17:51:57.832Z,15.85
2022-08-27T17:57:01.621Z,14.82
2022-08-27T18:02:03.460Z,15.05
2022-08-27T18:07:05.159Z,14.95
2022-08-27T18:12:07.705Z,15.50
2022-08-27T18:17:09.484Z,13.50
2022-08-27T18:22:15.412Z,12.07
2022-08-27T18:27:18.175Z,10.13
2022-08-27T18:32:19.877Z,10.68
2022-08-27T18:37:21.718Z,9.15
2022-08-27T18:42:23.446Z,8.45
2022-08-27T18:47:25.107Z,8.95
2022-08-27T18:52:26.795Z,8.45
2022-08-27T18:57:28.486Z,8.68
2022-08-27T19:02:31.014Z,9.15
2022-08-27T19:07:32.783Z,9.93
2022-08-27T19:12:34.571Z,11.02
2022-08-27T19:17:41.816Z,9.13
2022-08-27T19:22:43.625Z,8.93
2022-08-27T19:27:46.351Z,8.73
2022-08-27T19:32:48.291Z,7.90
2022-08-27T19:37:56.587Z,7.78
2022-08-27T19:42:58.392Z,7.95
2022-08-27T19:48:00.141Z,6.95
2022-08-27T19:53:01.781Z,7.05
2022-08-27T19:58:03.661Z,6.22
2022-08-27T20:03:08.054Z,6.85
2022-08-27T20:08:09.726Z,5.60
2022-08-27T20:13:14.736Z,5.70
2022-08-27T20:18:16.726Z,6.25
2022-08-27T20:23:18.593Z,6.57
2022-08-27T20:28:39.029Z,5.53
2022-08-27T20:33:41.529Z,6.45
2022-08-27T20:38:43.158Z,6.30
2022-08-27T20:43:44.920Z,8.18
2022-08-27T20:48:47.056Z,8.57
2022-08-27T20:53:48.719Z,6.82
2022-08-27T20:59:08.723Z,5.57
2022-08-27T21:04:11.507Z,4.15
2022-08-27T21:09:13.212Z,4.07
2022-08-27T21:14:14.839Z,4.68
2022-08-27T21:19:16.493Z,5.15
2022-08-27T21:24:18.506Z,4.25
2022-08-27T21:29:20.465Z,4.57
2022-08-27T21:34:22.182Z,5.10
2022-08-27T21:39:23.883Z,4.90
2022-08-27T21:44:25.544Z,6.45
2022-08-27T21:49:27.947Z,5.85
2022-08-27T21:54:32.724Z,5.35
2022-08-27T21:59:41.729Z,4.75
2022-08-27T22:04:43.383Z,4.00
2022-08-27T22:09:45.466Z,3.70
2022-08-27T22:14:47.130Z,4.10
2022-08-27T22:19:48.756Z,4.82
2022-08-27T22:24:50.465Z,5.40
2022-08-27T22:29:53.435Z,6.38
2022-08-27T22:34:55.073Z,6.28
2022-08-27T22:39:57.055Z,5.55
2022-08-27T22:44:59.630Z,5.72
2022-08-27T22:50:01.340Z,5.38
2022-08-27T22:55:03.804Z,5.70
2022-08-27T23:00:12.848Z,6.40
2022-08-27T23:05:15.605Z,6.03
2022-08-27T23:10:20.648Z,6.63
2022-08-27T23:15:28.601Z,6.35
2022-08-27T23:20:30.296Z,7.88
2022-08-27T23:25:50.199Z,8.10
2022-08-27T23:30:52.364Z,8.80
2022-08-27T23:35:54.058Z,8.90
2022-08-27T23:40:55.927Z,9.05
2022-08-27T23:45:57.581Z,7.65
2022-08-27T23:50:59.362Z,7.80
2022-08-27T23:56:00.989Z,8.23
